Time;durP1;ratioP1;P1;durP2;ratioP2;P2;SDS_P1;SDS_P2;PMS_P1;PMS_P2;Temp;Humidity;BMP_temperature;BMP_pressure;BME280_temperature;BME280_humidity;BME280_pressure;Samples;Min_cycle;Max_cycle;Signal;HPM_P1;HPM_P2
2023/03/01 00:02:43;;;;;;;;;;;0.60;55.70;;;;;;8395844;28;19924;-70
2023/03/01 00:06:47;;;;;;;;;;;0.50;55.80;;;;;;8394887;28;19924;-70
2023/03/01 00:10:49;;;;;;;;;;;0.40;56.20;;;;;;8392887;28;19928;-70
2023/03/01 00:14:51;;;;;;;;;;;0.30;56.10;;;;;;8376263;28;19939;-70
2023/03/01 00:18:53;;;;;;;;;;;0.30;56.00;;;;;;8393894;28;19924;-70
2023/03/01 00:22:55;;;;;;;;;;;0.30;56.10;;;;;;8391017;28;19925;-70
2023/03/01 00:26:57;;;;;;;;;;;0.20;56.00;;;;;;8394807;28;19928;-70
2023/03/01 00:31:03;;;;;;;;;;;0.10;56.20;;;;;;8371146;28;19932;-71
2023/03/01 00:35:05;;;;;;;;;;;0.10;56.70;;;;;;8368190;28;19929;-70
2023/03/01 00:39:10;;;;;;;;;;;0.00;56.60;;;;;;8374631;28;19925;-70
2023/03/01 00:43:11;;;;;;;;;;;0.00;56.30;;;;;;8387638;28;19925;-70
2023/03/01 00:47:13;;;;;;;;;;;-0.10;56.60;;;;;;8389695;28;19968;-70
2023/03/01 00:51:20;;;;;;;;;;;-0.10;57.20;;;;;;8376387;28;19967;-70
2023/03/01 00:55:21;;;;;;;;;;;-0.20;56.60;;;;;;8383254;28;20360;-70
2023/03/01 00:59:23;;;;;;;;;;;-0.20;56.80;;;;;;8390738;28;19924;-70
2023/03/01 01:03:25;;;;;;;;;;;-0.20;56.60;;;;;;8390584;28;20303;-70
2023/03/01 01:12:29;;;;;;;;;;;-0.30;56.80;;;;;;8391518;28;19967;-70
2023/03/01 01:16:31;;;;;;;;;;;-0.40;57.90;;;;;;8382113;28;20406;-70
2023/03/01 01:20:35;;;;;;;;;;;-0.40;57.20;;;;;;8386421;28;19974;-70
2023/03/01 01:24:36;;;;;;;;;;;-0.50;56.80;;;;;;8384264;28;19924;-70
2023/03/01 01:28:38;;;;;;;;;;;-0.50;57.20;;;;;;8389749;28;20301;-70
2023/03/01 01:32:40;;;;;;;;;;;-0.50;56.60;;;;;;8380172;28;19932;-70
2023/03/01 01:36:41;;;;;;;;;;;-0.60;56.70;;;;;;8390503;28;19981;-70
2023/03/01 01:40:44;;;;;;;;;;;-0.60;56.80;;;;;;8386475;28;19925;-70
2023/03/01 01:44:46;;;;;;;;;;;-0.60;57.30;;;;;;8389316;28;19925;-70
2023/03/01 01:48:49;;;;;;;;;;;-0.70;56.90;;;;;;8388573;28;19925;-70
2023/03/01 01:52:52;;;;;;;;;;;-0.80;56.80;;;;;;8387242;28;19967;-70
2023/03/01 01:57:00;;;;;;;;;;;-0.90;56.80;;;;;;8386951;28;20037;-70
2023/03/01 02:01:02;;;;;;;;;;;-1.00;57.40;;;;;;8387234;28;20505;-70
2023/03/01 02:05:23;;;;;;;;;;;-1.10;57.20;;;;;;8384558;28;19932;-70
2023/03/01 02:09:25;;;;;;;;;;;-1.10;57.40;;;;;;8387068;28;19928;-70
2023/03/01 02:13:27;;;;;;;;;;;-1.10;57.40;;;;;;8388221;28;20444;-70
2023/03/01 02:32:41;;;;;;;;;;;-1.10;57.50;;;;;;8385516;28;19923;-70
2023/03/01 02:36:50;;;;;;;;;;;-1.10;57.60;;;;;;8392791;28;19924;-70
2023/03/01 02:40:53;;;;;;;;;;;-1.10;57.90;;;;;;8383323;28;19924;-70
2023/03/01 02:44:55;;;;;;;;;;;-1.10;58.80;;;;;;8399231;28;19924;-70
2023/03/01 02:48:58;;;;;;;;;;;-1.10;58.60;;;;;;8386638;28;19970;-70
2023/03/01 02:53:02;;;;;;;;;;;-1.10;58.10;;;;;;8382512;28;19932;-70
2023/03/01 02:57:03;;;;;;;;;;;-1.10;58.20;;;;;;8391015;28;19925;-70
2023/03/01 03:01:05;;;;;;;;;;;-1.20;57.60;;;;;;8389204;28;19928;-70
2023/03/01 03:05:08;;;;;;;;;;;-1.20;57.70;;;;;;8370203;28;20356;-70
2023/03/01 03:09:09;;;;;;;;;;;-1.20;58.10;;;;;;8391100;28;19994;-70
2023/03/01 03:13:12;;;;;;;;;;;-1.30;57.60;;;;;;8384508;28;19925;-70
2023/03/01 03:17:14;;;;;;;;;;;-1.30;58.00;;;;;;8368466;28;19939;-70
2023/03/01 03:21:16;;;;;;;;;;;-1.30;58.90;;;;;;8389378;28;19964;-70
2023/03/01 03:25:18;;;;;;;;;;;-1.40;58.80;;;;;;8389807;28;19924;-70
2023/03/01 03:29:20;;;;;;;;;;;-1.50;59.70;;;;;;8391990;28;19929;-70
2023/03/01 03:33:21;;;;;;;;;;;-1.50;58.50;;;;;;8381137;28;19924;-70
2023/03/01 03:41:43;;;;;;;;;;;-1.60;58.30;;;;;;8386854;28;20403;-70
2023/03/01 03:45:45;;;;;;;;;;;-1.60;57.80;;;;;;8394051;28;19999;-70
2023/03/01 03:49:47;;;;;;;;;;;-1.60;58.80;;;;;;8394545;28;19925;-70
2023/03/01 03:53:49;;;;;;;;;;;-1.70;58.30;;;;;;8373790;28;19935;-70
2023/03/01 03:57:51;;;;;;;;;;;-1.60;59.60;;;;;;8388431;28;19928;-70
2023/03/01 04:01:53;;;;;;;;;;;-1.70;59.20;;;;;;8395657;28;19924;-69
2023/03/01 04:05:56;;;;;;;;;;;-1.70;58.60;;;;;;8396070;28;19924;-69
2023/03/01 04:25:09;;;;;;;;;;;-1.80;59.30;;;;;;8389273;28;19965;-69
2023/03/01 04:29:10;;;;;;;;;;;-1.70;60.30;;;;;;8396479;28;19928;-69
2023/03/01 04:33:12;;;;;;;;;;;-1.70;60.60;;;;;;8391117;28;19931;-69
2023/03/01 04:37:15;;;;;;;;;;;-1.80;61.00;;;;;;8402475;28;19924;-69
2023/03/01 04:41:18;;;;;;;;;;;-1.80;60.30;;;;;;8367543;28;19924;-69
2023/03/01 04:45:20;;;;;;;;;;;-1.90;60.00;;;;;;8393729;28;19928;-69
2023/03/01 04:49:22;;;;;;;;;;;-1.90;60.20;;;;;;8393084;28;19939;-69
2023/03/01 04:53:24;;;;;;;;;;;-1.90;60.80;;;;;;8391292;28;19924;-69
2023/03/01 04:57:26;;;;;;;;;;;-1.90;60.70;;;;;;8389221;28;20319;-68
2023/03/01 05:01:27;;;;;;;;;;;-1.90;60.00;;;;;;8389697;28;19932;-69
2023/03/01 05:05:34;;;;;;;;;;;-1.90;60.90;;;;;;8387143;28;19925;-69
2023/03/01 05:09:35;;;;;;;;;;;-2.00;60.70;;;;;;8376554;28;19935;-69
2023/03/01 05:13:37;;;;;;;;;;;-2.00;59.70;;;;;;8390848;28;19928;-69
2023/03/01 05:22:43;;;;;;;;;;;-2.10;59.60;;;;;;8387956;28;20015;-69
2023/03/01 05:26:44;;;;;;;;;;;-2.00;60.00;;;;;;8372537;28;19924;-69
2023/03/01 05:30:46;;;;;;;;;;;-2.00;59.20;;;;;;8388753;28;19924;-69
2023/03/01 05:34:48;;;;;;;;;;;-2.10;59.30;;;;;;8388994;28;19925;-69
2023/03/01 05:38:49;;;;;;;;;;;-2.10;60.30;;;;;;8386747;28;19929;-69
2023/03/01 05:42:54;;;;;;;;;;;-2.10;59.50;;;;;;8383071;28;20198;-69
2023/03/01 05:46:56;;;;;;;;;;;-2.20;60.10;;;;;;8390693;28;19985;-69
2023/03/01 05:50:59;;;;;;;;;;;-2.20;60.10;;;;;;8392899;28;19924;-69
2023/03/01 05:55:01;;;;;;;;;;;-2.20;60.00;;;;;;8384960;28;19928;-69
2023/03/01 05:59:04;;;;;;;;;;;-2.30;59.90;;;;;;8373025;28;19968;-69
2023/03/01 06:03:06;;;;;;;;;;;-2.30;60.60;;;;;;8368937;28;19932;-69
2023/03/01 06:07:08;;;;;;;;;;;-2.30;61.20;;;;;;8403402;28;20303;-69
2023/03/01 06:11:09;;;;;;;;;;;-2.40;61.90;;;;;;8391090;28;19925;-69
2023/03/01 06:15:12;;;;;;;;;;;-2.40;61.60;;;;;;8386146;28;20372;-69
2023/03/01 06:19:14;;;;;;;;;;;-2.40;62.00;;;;;;8390864;28;20378;-69
2023/03/01 06:23:15;;;;;;;;;;;-2.30;63.30;;;;;;8387066;28;19928;-69
2023/03/01 06:27:17;;;;;;;;;;;-2.30;62.10;;;;;;8394278;28;20015;-69
2023/03/01 06:31:18;;;;;;;;;;;-2.30;61.10;;;;;;8388590;28;19928;-69
2023/03/01 06:35:20;;;;;;;;;;;-2.30;62.70;;;;;;8388103;28;20331;-69
2023/03/01 06:39:22;;;;;;;;;;;-2.30;62.90;;;;;;8371953;28;19929;-69
2023/03/01 06:43:23;;;;;;;;;;;-2.30;61.80;;;;;;8385916;28;20384;-69
2023/03/01 06:47:25;;;;;;;;;;;-2.20;61.80;;;;;;8387703;28;19940;-69
2023/03/01 06:51:27;;;;;;;;;;;-2.10;61.80;;;;;;8390214;28;19925;-69
2023/03/01 06:55:28;;;;;;;;;;;-2.10;62.10;;;;;;8385380;28;19953;-69
2023/03/01 06:59:31;;;;;;;;;;;-2.00;63.80;;;;;;8388481;28;20206;-69
2023/03/01 07:03:32;;;;;;;;;;;-1.90;64.70;;;;;;8389762;28;19925;-69
2023/03/01 07:07:34;;;;;;;;;;;-1.80;64.60;;;;;;8394952;28;19924;-69
2023/03/01 07:11:36;;;;;;;;;;;-1.70;64.80;;;;;;8390653;28;19925;-69
2023/03/01 07:15:39;;;;;;;;;;;-1.50;64.80;;;;;;8395120;28;19986;-68
2023/03/01 07:19:41;;;;;;;;;;;-1.40;64.80;;;;;;8397948;28;19928;-68
2023/03/01 07:23:43;;;;;;;;;;;-1.20;64.80;;;;;;8394712;28;19925;-68
2023/03/01 07:27:48;;;;;;;;;;;-1.00;65.30;;;;;;8375240;28;20317;-68
2023/03/01 07:36:54;;;;;;;;;;;-0.70;65.40;;;;;;8391945;28;20391;-68
2023/03/01 07:41:00;;;;;;;;;;;-0.50;66.30;;;;;;8384843;28;20457;-69
2023/03/01 07:45:01;;;;;;;;;;;-0.30;66.90;;;;;;8376682;28;19935;-69
2023/03/01 07:49:04;;;;;;;;;;;-0.10;68.00;;;;;;8390981;28;19928;-69
2023/03/01 07:53:06;;;;;;;;;;;0.00;68.10;;;;;;8394691;28;19925;-69
2023/03/01 07:57:07;;;;;;;;;;;0.20;68.40;;;;;;8392090;28;20311;-69
2023/03/01 08:01:10;;;;;;;;;;;0.40;68.10;;;;;;8384676;28;19975;-69
2023/03/01 08:10:09;;;;;;;;;;;0.80;70.10;;;;;;8389472;28;20432;-69
2023/03/01 08:14:11;;;;;;;;;;;1.00;70.60;;;;;;8391075;28;19934;-69
2023/03/01 08:18:13;;;;;;;;;;;1.20;69.90;;;;;;8391207;28;19931;-69
2023/03/01 08:22:14;;;;;;;;;;;1.40;71.90;;;;;;8387744;28;19932;-69
2023/03/01 08:26:18;;;;;;;;;;;1.60;71.00;;;;;;8372108;28;19924;-70
2023/03/01 08:30:20;;;;;;;;;;;1.80;71.40;;;;;;8389275;28;19939;-70
2023/03/01 08:34:21;;;;;;;;;;;2.00;72.40;;;;;;8393714;28;19928;-70
2023/03/01 08:38:23;;;;;;;;;;;2.20;72.00;;;;;;8394811;28;19924;-69
2023/03/01 08:42:25;;;;;;;;;;;2.40;75.20;;;;;;8378357;28;19925;-69
2023/03/01 08:46:27;;;;;;;;;;;2.60;72.10;;;;;;8388371;28;20019;-70
2023/03/01 08:50:28;;;;;;;;;;;2.80;72.40;;;;;;8370746;28;19925;-70
2023/03/01 08:54:30;;;;;;;;;;;2.90;73.40;;;;;;8372794;28;20466;-70
2023/03/01 08:58:32;;;;;;;;;;;3.10;72.20;;;;;;8391486;28;20291;-70
2023/03/01 09:02:33;;;;;;;;;;;3.30;74.10;;;;;;8386976;28;19925;-70
2023/03/01 09:06:35;;;;;;;;;;;3.50;75.30;;;;;;8389907;28;19928;-70
2023/03/01 09:10:37;;;;;;;;;;;3.70;75.10;;;;;;8375897;28;19928;-69
2023/03/01 09:14:41;;;;;;;;;;;3.90;74.90;;;;;;8390550;28;19932;-69
2023/03/01 09:18:43;;;;;;;;;;;4.10;76.60;;;;;;8387792;28;20395;-70
2023/03/01 09:22:45;;;;;;;;;;;4.20;74.60;;;;;;8390600;28;19924;-70
2023/03/01 09:26:47;;;;;;;;;;;4.30;73.90;;;;;;8385822;28;19924;-70
2023/03/01 09:30:51;;;;;;;;;;;4.40;73.30;;;;;;8384725;28;20375;-70
2023/03/01 09:35:04;;;;;;;;;;;4.50;74.20;;;;;;8389278;28;19928;-70
2023/03/01 09:39:06;;;;;;;;;;;4.70;75.20;;;;;;8393980;28;19924;-70
2023/03/01 09:43:26;;;;;;;;;;;4.80;75.80;;;;;;8379105;28;20343;-70
2023/03/01 09:47:29;;;;;;;;;;;5.00;74.60;;;;;;8391358;28;20023;-70
2023/03/01 09:51:32;;;;;;;;;;;5.20;75.20;;;;;;8392085;28;19925;-70
2023/03/01 09:55:38;;;;;;;;;;;5.50;76.60;;;;;;8372023;28;19932;-70
2023/03/01 09:59:46;;;;;;;;;;;5.90;77.50;;;;;;8386732;28;20388;-70
2023/03/01 10:03:58;;;;;;;;;;;6.20;78.40;;;;;;8389012;28;19934;-70
2023/03/01 10:08:03;;;;;;;;;;;6.60;81.30;;;;;;8383004;28;20391;-70
2023/03/01 10:22:17;;;;;;;;;;;7.80;90.20;;;;;;8386772;28;19927;-70
2023/03/01 10:26:29;;;;;;;;;;;8.10;92.10;;;;;;8389941;28;19925;-70
2023/03/01 10:30:39;;;;;;;;;;;8.40;93.30;;;;;;8385218;28;20423;-70
2023/03/01 10:34:41;;;;;;;;;;;8.50;92.80;;;;;;8400424;28;19943;-70
2023/03/01 10:38:52;;;;;;;;;;;8.70;92.40;;;;;;8382946;28;19929;-70
2023/03/01 10:42:57;;;;;;;;;;;9.20;94.60;;;;;;8388248;28;20139;-70
2023/03/01 10:47:00;;;;;;;;;;;9.70;96.60;;;;;;8397292;28;20395;-70
2023/03/01 10:51:02;;;;;;;;;;;10.20;98.30;;;;;;8397786;28;19973;-70
2023/03/01 10:55:25;;;;;;;;;;;10.60;99.10;;;;;;8384313;28;19995;-70
2023/03/01 10:59:33;;;;;;;;;;;11.00;99.90;;;;;;8386975;28;19924;-70
2023/03/01 11:03:36;;;;;;;;;;;11.60;99.90;;;;;;8397481;28;20337;-70
2023/03/01 11:07:52;;;;;;;;;;;12.10;99.90;;;;;;8401611;28;19932;-70
2023/03/01 11:11:55;;;;;;;;;;;12.50;99.90;;;;;;8378725;28;20204;-70
2023/03/01 11:16:01;;;;;;;;;;;12.80;99.90;;;;;;8402701;28;19979;-70
2023/03/01 11:20:12;;;;;;;;;;;13.10;99.90;;;;;;8398061;28;19958;-70
2023/03/01 11:24:14;;;;;;;;;;;13.30;99.90;;;;;;8392931;28;20367;-70
2023/03/01 11:28:17;;;;;;;;;;;13.60;99.90;;;;;;8382397;28;19932;-70
2023/03/01 11:32:20;;;;;;;;;;;14.00;99.90;;;;;;8396511;28;19947;-70
2023/03/01 11:36:29;;;;;;;;;;;14.40;99.90;;;;;;8397726;28;19934;-70
2023/03/01 11:40:37;;;;;;;;;;;14.70;99.90;;;;;;8379001;28;20047;-70
2023/03/01 11:44:41;;;;;;;;;;;14.90;99.90;;;;;;8370133;28;19930;-70
2023/03/01 11:48:47;;;;;;;;;;;15.00;99.90;;;;;;8372454;28;20036;-70
2023/03/01 11:52:54;;;;;;;;;;;15.00;99.90;;;;;;8363524;28;19939;-70
2023/03/01 11:56:56;;;;;;;;;;;14.90;99.90;;;;;;8378671;28;19964;-70
2023/03/01 12:01:07;;;;;;;;;;;15.10;99.90;;;;;;8367457;28;19924;-70
2023/03/01 12:05:17;;;;;;;;;;;15.20;99.90;;;;;;8368258;28;19933;-70
2023/03/01 12:09:30;;;;;;;;;;;15.40;99.90;;;;;;8366908;28;20343;-71
2023/03/01 12:13:44;;;;;;;;;;;16.00;99.90;;;;;;8370304;28;19928;-70
2023/03/01 12:18:01;;;;;;;;;;;16.50;99.90;;;;;;8348346;28;19931;-70
2023/03/01 12:22:28;;;;;;;;;;;16.70;99.90;;;;;;8364770;28;19925;-70
2023/03/01 12:26:35;;;;;;;;;;;16.80;94.80;;;;;;8369413;28;20015;-71
2023/03/01 12:30:46;;;;;;;;;;;17.10;99.90;;;;;;8363196;28;20304;-70
2023/03/01 12:34:53;;;;;;;;;;;17.30;99.90;;;;;;8366404;28;20388;-70
2023/03/01 12:39:10;;;;;;;;;;;17.60;99.90;;;;;;8364397;28;24196;-70
2023/03/01 12:43:15;;;;;;;;;;;17.50;99.90;;;;;;8360383;28;20408;-70
2023/03/01 12:47:26;;;;;;;;;;;17.40;97.20;;;;;;8365503;28;19929;-70
2023/03/01 12:51:29;;;;;;;;;;;17.20;97.70;;;;;;8364865;28;20384;-70
2023/03/01 12:55:33;;;;;;;;;;;16.60;95.40;;;;;;8363842;28;19968;-70
2023/03/01 12:59:38;;;;;;;;;;;16.40;92.60;;;;;;8366843;28;19931;-70
2023/03/01 13:03:52;;;;;;;;;;;16.40;90.60;;;;;;8364225;28;19924;-70
2023/03/01 13:08:10;;;;;;;;;;;16.80;91.60;;;;;;8364210;28;20273;-70
2023/03/01 13:12:30;;;;;;;;;;;16.90;92.70;;;;;;8362896;28;20398;-70
2023/03/01 13:16:32;;;;;;;;;;;16.30;92.20;;;;;;8350627;28;19931;-70
2023/03/01 13:20:43;;;;;;;;;;;15.40;89.30;;;;;;8362978;28;19940;-70
2023/03/01 13:24:44;;;;;;;;;;;14.80;83.20;;;;;;8364883;28;20019;-70
2023/03/01 13:28:57;;;;;;;;;;;14.30;75.40;;;;;;8364892;28;19929;-70
2023/03/01 13:33:25;;;;;;;;;;;13.70;72.00;;;;;;8343714;28;19968;-70
2023/03/01 13:37:29;;;;;;;;;;;13.30;69.30;;;;;;8331398;28;19925;-70
2023/03/01 13:41:43;;;;;;;;;;;13.10;66.90;;;;;;8367369;28;19968;-70
2023/03/01 13:45:52;;;;;;;;;;;12.90;64.10;;;;;;8368028;28;19933;-70
2023/03/01 13:49:57;;;;;;;;;;;12.70;63.50;;;;;;8345485;28;19940;-70
2023/03/01 13:53:59;;;;;;;;;;;12.60;62.30;;;;;;8379508;28;19968;-70
2023/03/01 13:58:03;;;;;;;;;;;12.60;61.70;;;;;;8364944;28;20300;-70
2023/03/01 14:02:11;;;;;;;;;;;12.50;60.80;;;;;;8365402;28;20004;-70
2023/03/01 14:06:15;;;;;;;;;;;12.40;60.70;;;;;;8361745;28;20315;-70
2023/03/01 14:10:21;;;;;;;;;;;12.50;60.20;;;;;;8365230;28;19924;-70
2023/03/01 14:14:36;;;;;;;;;;;12.50;60.10;;;;;;8358926;28;19933;-70
2023/03/01 14:18:47;;;;;;;;;;;12.60;59.30;;;;;;8381485;28;20400;-70
2023/03/01 14:22:51;;;;;;;;;;;12.50;59.30;;;;;;8361591;28;19932;-70
2023/03/01 14:26:53;;;;;;;;;;;12.40;59.30;;;;;;8355325;28;19955;-70
2023/03/01 14:30:56;;;;;;;;;;;12.40;59.00;;;;;;8365223;28;19932;-70
2023/03/01 14:34:58;;;;;;;;;;;12.50;59.20;;;;;;8361599;28;19935;-70
2023/03/01 14:39:05;;;;;;;;;;;12.80;60.10;;;;;;8362207;28;19935;-70
2023/03/01 14:43:11;;;;;;;;;;;13.90;62.60;;;;;;8365966;28;19978;-70
2023/03/01 14:47:22;;;;;;;;;;;15.20;64.00;;;;;;8362484;28;19979;-70
2023/03/01 14:51:24;;;;;;;;;;;16.20;68.30;;;;;;8375201;28;19939;-70
2023/03/01 14:55:29;;;;;;;;;;;17.20;71.60;;;;;;8362474;28;19924;-70
2023/03/01 14:59:32;;;;;;;;;;;18.20;73.70;;;;;;8357782;28;19928;-70
2023/03/01 15:03:36;;;;;;;;;;;18.70;76.60;;;;;;8339388;28;19935;-70
2023/03/01 15:07:40;;;;;;;;;;;19.30;78.60;;;;;;8366648;28;19963;-70
2023/03/01 15:11:43;;;;;;;;;;;19.80;76.20;;;;;;8359024;28;19936;-70
2023/03/01 15:15:48;;;;;;;;;;;19.70;74.20;;;;;;8359122;28;19924;-70
2023/03/01 15:19:50;;;;;;;;;;;19.30;72.00;;;;;;8376226;28;20326;-70
2023/03/01 15:23:54;;;;;;;;;;;19.00;72.30;;;;;;8367245;28;20575;-70
2023/03/01 15:27:58;;;;;;;;;;;18.70;68.80;;;;;;8365506;28;19924;-70
2023/03/01 15:32:04;;;;;;;;;;;18.50;69.50;;;;;;8360299;28;19929;-70
2023/03/01 15:36:25;;;;;;;;;;;18.50;67.00;;;;;;8366813;28;19924;-70
2023/03/01 15:40:37;;;;;;;;;;;18.00;64.50;;;;;;8364974;28;19932;-70
2023/03/01 15:44:41;;;;;;;;;;;17.40;63.60;;;;;;8372411;28;19928;-70
2023/03/01 15:48:46;;;;;;;;;;;16.90;60.40;;;;;;8365540;28;19979;-70
2023/03/01 15:52:48;;;;;;;;;;;16.50;61.60;;;;;;8366042;28;19976;-70
2023/03/01 15:56:50;;;;;;;;;;;16.50;61.60;;;;;;8357246;28;19936;-70
2023/03/01 16:00:55;;;;;;;;;;;16.50;61.00;;;;;;8363972;28;24434;-70
2023/03/01 16:05:03;;;;;;;;;;;16.40;60.10;;;;;;8364616;28;20357;-70
2023/03/01 16:09:05;;;;;;;;;;;16.10;58.60;;;;;;8367720;28;20404;-70
2023/03/01 16:13:07;;;;;;;;;;;15.80;57.80;;;;;;8364804;28;20019;-70
2023/03/01 16:17:10;;;;;;;;;;;15.80;58.30;;;;;;8364922;28;20399;-70
2023/03/01 16:21:22;;;;;;;;;;;15.90;57.90;;;;;;8366695;28;19974;-70
2023/03/01 16:25:23;;;;;;;;;;;15.40;55.70;;;;;;8346622;28;19968;-70
2023/03/01 16:29:25;;;;;;;;;;;14.70;54.60;;;;;;8367204;28;20447;-70
2023/03/01 16:33:27;;;;;;;;;;;14.20;54.30;;;;;;8365687;28;19931;-70
2023/03/01 16:37:35;;;;;;;;;;;13.80;53.30;;;;;;8354881;28;19933;-70
2023/03/01 16:41:36;;;;;;;;;;;13.40;53.10;;;;;;8361167;28;19936;-70
2023/03/01 16:45:40;;;;;;;;;;;13.00;52.60;;;;;;8356078;28;19933;-70
2023/03/01 16:49:42;;;;;;;;;;;12.70;52.20;;;;;;8369735;28;19935;-70
2023/03/01 16:53:43;;;;;;;;;;;12.30;51.60;;;;;;8358706;28;20333;-70
2023/03/01 16:57:47;;;;;;;;;;;12.00;51.10;;;;;;8370718;28;19924;-70
2023/03/01 17:01:49;;;;;;;;;;;11.70;50.80;;;;;;8366758;28;19928;-70
2023/03/01 17:05:50;;;;;;;;;;;11.40;50.30;;;;;;8384728;28;19925;-70
2023/03/01 17:09:52;;;;;;;;;;;11.00;49.90;;;;;;8346930;28;20068;-70
2023/03/01 17:13:54;;;;;;;;;;;10.60;49.70;;;;;;8361519;28;19967;-70
2023/03/01 17:17:55;;;;;;;;;;;10.30;49.50;;;;;;8367875;28;20411;-71
2023/03/01 17:21:57;;;;;;;;;;;10.20;49.40;;;;;;8378792;28;19928;-70
2023/03/01 17:25:59;;;;;;;;;;;10.10;49.20;;;;;;8364826;28;20652;-70
2023/03/01 17:30:00;;;;;;;;;;;10.00;48.90;;;;;;8368956;28;19924;-70
2023/03/01 17:34:02;;;;;;;;;;;9.80;49.30;;;;;;8356292;28;19931;-70
2023/03/01 17:48:10;;;;;;;;;;;9.30;48.80;;;;;;8349712;28;19923;-70
2023/03/01 17:52:12;;;;;;;;;;;9.10;48.70;;;;;;8366260;28;20308;-70
2023/03/01 17:56:14;;;;;;;;;;;9.00;48.70;;;;;;8367497;28;19932;-70
2023/03/01 18:00:16;;;;;;;;;;;8.80;49.10;;;;;;8365131;28;20395;-69
2023/03/01 18:04:19;;;;;;;;;;;8.60;48.70;;;;;;8346601;28;19928;-69
2023/03/01 18:08:20;;;;;;;;;;;8.50;48.80;;;;;;8364116;28;19925;-69
2023/03/01 18:12:22;;;;;;;;;;;8.40;48.50;;;;;;8363666;28;20392;-70
2023/03/01 18:16:24;;;;;;;;;;;8.30;48.60;;;;;;8365811;28;19924;-70
2023/03/01 18:20:26;;;;;;;;;;;8.30;48.80;;;;;;8364195;28;19929;-70
2023/03/01 18:24:27;;;;;;;;;;;8.10;48.20;;;;;;8352039;28;20015;-70
2023/03/01 18:28:30;;;;;;;;;;;8.00;48.80;;;;;;8366156;28;19960;-70
2023/03/01 18:32:31;;;;;;;;;;;7.90;48.10;;;;;;8365603;28;19931;-70
2023/03/01 18:36:34;;;;;;;;;;;7.80;48.10;;;;;;8380565;28;20138;-70
2023/03/01 18:40:36;;;;;;;;;;;7.70;48.20;;;;;;8353552;28;20023;-70
2023/03/01 18:44:38;;;;;;;;;;;7.50;48.00;;;;;;8362758;28;20364;-70
2023/03/01 18:48:40;;;;;;;;;;;7.40;48.10;;;;;;8360285;28;19928;-70
2023/03/01 18:52:41;;;;;;;;;;;7.30;48.10;;;;;;8362155;28;19924;-70
2023/03/01 18:56:43;;;;;;;;;;;7.20;48.00;;;;;;8363485;28;19933;-70
2023/03/01 19:00:45;;;;;;;;;;;7.20;48.40;;;;;;8347825;28;19925;-70
2023/03/01 19:04:48;;;;;;;;;;;7.00;48.30;;;;;;8349697;28;20480;-70
2023/03/01 19:08:51;;;;;;;;;;;6.90;48.00;;;;;;8358276;28;20328;-70
2023/03/01 19:12:52;;;;;;;;;;;6.90;48.00;;;;;;8367459;28;19967;-70
2023/03/01 19:16:54;;;;;;;;;;;6.80;47.90;;;;;;8365759;28;20417;-70
2023/03/01 19:21:00;;;;;;;;;;;6.60;47.80;;;;;;8358729;28;19940;-70
2023/03/01 19:25:04;;;;;;;;;;;6.50;48.40;;;;;;8368474;28;20407;-70
2023/03/01 19:29:07;;;;;;;;;;;6.30;47.60;;;;;;8367114;28;19929;-70
2023/03/01 19:33:09;;;;;;;;;;;6.20;47.40;;;;;;8365558;28;19925;-70
2023/03/01 19:37:11;;;;;;;;;;;6.20;47.70;;;;;;8365745;28;20277;-70
2023/03/01 19:41:16;;;;;;;;;;;6.10;47.50;;;;;;8363045;28;20327;-70
2023/03/01 19:45:18;;;;;;;;;;;6.00;47.70;;;;;;8366630;28;19929;-70
2023/03/01 19:49:29;;;;;;;;;;;5.90;47.50;;;;;;8367823;28;20288;-70
2023/03/01 19:53:30;;;;;;;;;;;5.80;47.90;;;;;;8360099;28;20283;-70
2023/03/01 19:57:32;;;;;;;;;;;5.70;47.90;;;;;;8368397;28;19982;-70
2023/03/01 20:01:34;;;;;;;;;;;5.60;47.90;;;;;;8366734;28;19924;-70
2023/03/01 20:06:03;;;;;;;;;;;5.60;48.10;;;;;;8366408;28;20380;-70
2023/03/01 20:10:05;;;;;;;;;;;5.50;48.00;;;;;;8365427;28;20004;-70
2023/03/01 20:14:09;;;;;;;;;;;5.50;48.20;;;;;;8366735;28;20031;-70
2023/03/01 20:18:12;;;;;;;;;;;5.50;48.10;;;;;;8363017;28;19932;-70
2023/03/01 20:22:14;;;;;;;;;;;5.40;47.70;;;;;;8346714;28;20384;-70
2023/03/01 20:26:18;;;;;;;;;;;5.20;47.50;;;;;;8364437;28;20572;-70
2023/03/01 20:30:20;;;;;;;;;;;5.10;47.70;;;;;;8368084;28;19929;-70
2023/03/01 20:34:22;;;;;;;;;;;5.00;47.80;;;;;;8368518;28;19931;-70
2023/03/01 20:38:25;;;;;;;;;;;4.90;47.90;;;;;;8372792;28;20414;-70
2023/03/01 20:42:26;;;;;;;;;;;4.90;48.10;;;;;;8355438;28;19982;-70
2023/03/01 20:46:30;;;;;;;;;;;4.80;48.10;;;;;;8369037;28;19977;-70
2023/03/01 20:50:33;;;;;;;;;;;4.80;48.00;;;;;;8359353;28;19971;-70
2023/03/01 20:54:35;;;;;;;;;;;4.70;48.90;;;;;;8363844;28;20276;-70
2023/03/01 20:58:36;;;;;;;;;;;4.70;48.80;;;;;;8355514;28;20173;-70
2023/03/01 21:02:38;;;;;;;;;;;4.70;48.80;;;;;;8346564;28;19929;-70
2023/03/01 21:06:41;;;;;;;;;;;4.60;48.40;;;;;;8365765;28;19928;-69
2023/03/01 21:10:48;;;;;;;;;;;4.50;48.80;;;;;;8363391;28;19925;-69
2023/03/01 21:14:49;;;;;;;;;;;4.50;49.00;;;;;;8361338;28;20019;-70
2023/03/01 21:18:51;;;;;;;;;;;4.50;50.70;;;;;;8364298;28;19925;-70
2023/03/01 21:22:53;;;;;;;;;;;4.40;50.00;;;;;;8349384;28;19936;-70
2023/03/01 21:26:54;;;;;;;;;;;4.30;49.60;;;;;;8366612;28;19931;-70
2023/03/01 21:30:56;;;;;;;;;;;4.20;49.60;;;;;;8365266;28;19974;-70
2023/03/01 21:34:58;;;;;;;;;;;4.30;49.90;;;;;;8379977;28;19932;-69
2023/03/01 21:39:04;;;;;;;;;;;4.20;49.70;;;;;;8359261;28;20398;-70
2023/03/01 21:43:05;;;;;;;;;;;4.20;49.90;;;;;;8381788;28;20398;-70
2023/03/01 21:47:08;;;;;;;;;;;4.10;50.00;;;;;;8379610;28;20324;-70
2023/03/01 21:51:11;;;;;;;;;;;4.10;49.50;;;;;;8361370;28;20020;-70
2023/03/01 21:55:14;;;;;;;;;;;4.10;49.60;;;;;;8362641;28;19929;-70
2023/03/01 21:59:17;;;;;;;;;;;4.10;49.20;;;;;;8364859;28;19972;-70
2023/03/01 22:03:18;;;;;;;;;;;4.00;49.30;;;;;;8378627;28;20235;-70
2023/03/01 22:07:20;;;;;;;;;;;4.00;49.00;;;;;;8372710;28;19950;-70
2023/03/01 22:11:22;;;;;;;;;;;3.90;49.20;;;;;;8379655;28;19964;-70
2023/03/01 22:25:32;;;;;;;;;;;3.70;50.50;;;;;;8385604;28;20310;-70
2023/03/01 22:29:33;;;;;;;;;;;3.60;49.30;;;;;;8391638;28;19924;-70
2023/03/01 22:33:35;;;;;;;;;;;3.50;49.00;;;;;;8387928;28;19931;-70
2023/03/01 22:37:37;;;;;;;;;;;3.40;49.60;;;;;;8386436;28;20020;-70
2023/03/01 22:41:41;;;;;;;;;;;3.40;50.00;;;;;;8369842;28;19925;-69
2023/03/01 22:45:43;;;;;;;;;;;3.30;50.00;;;;;;8370381;28;20026;-69
2023/03/01 22:49:45;;;;;;;;;;;3.30;51.30;;;;;;8386910;28;19935;-69
2023/03/01 22:53:47;;;;;;;;;;;3.30;51.30;;;;;;8382058;28;20366;-69
2023/03/01 22:57:49;;;;;;;;;;;3.20;50.40;;;;;;8391879;28;19931;-69
2023/03/01 23:06:54;;;;;;;;;;;3.20;50.00;;;;;;8386517;28;19978;-70
2023/03/01 23:21:09;;;;;;;;;;;3.00;51.20;;;;;;8379608;28;19961;-69
2023/03/01 23:25:12;;;;;;;;;;;2.90;50.70;;;;;;8389949;28;19924;-70
2023/03/01 23:29:13;;;;;;;;;;;2.90;51.60;;;;;;8391083;28;20333;-70
2023/03/01 23:33:15;;;;;;;;;;;2.90;51.20;;;;;;8387018;28;19929;-70
2023/03/01 23:37:17;;;;;;;;;;;2.80;52.80;;;;;;8387880;28;20152;-70
2023/03/01 23:46:17;;;;;;;;;;;2.70;54.70;;;;;;8396358;28;19962;-70
2023/03/01 23:50:18;;;;;;;;;;;2.70;52.90;;;;;;8352366;28;19925;-70
2023/03/01 23:54:21;;;;;;;;;;;2.70;53.60;;;;;;8357893;28;19925;-70
2023/03/01 23:58:27;;;;;;;;;;;2.70;53.60;;;;;;8359998;28;19960;-70
